Time;durP1;ratioP1;P1;durP2;ratioP2;P2;SDS_P1;SDS_P2;PMS_P1;PMS_P2;Temp;Humidity;BMP_temperature;BMP_pressure;BME280_temperature;BME280_humidity;BME280_pressure;Samples;Min_cycle;Max_cycle;Signal;HPM_P1;HPM_P2
2020/12/06 00:01:44;;;;;;;15.98;9.55;;;;;;;4.98;75.82;97259.45;1751247;82;21195;-90
2020/12/06 00:04:18;;;;;;;15.88;10.10;;;;;;;4.97;75.82;97269.03;1736198;82;21147;-75
2020/12/06 00:06:44;;;;;;;19.52;10.15;;;;;;;4.99;75.96;97272.89;1713224;83;21349;-81
2020/12/06 00:09:21;;;;;;;16.20;9.33;;;;;;;4.97;75.90;97273.43;1677771;83;21541;-90
2020/12/06 00:11:53;;;;;;;13.58;8.80;;;;;;;4.96;76.16;97275.66;1703136;83;21167;-89
2020/12/06 00:14:22;;;;;;;17.55;10.70;;;;;;;4.96;76.07;97276.52;1646635;87;21623;-82
2020/12/06 00:16:50;;;;;;;16.05;8.15;;;;;;;4.95;76.25;97280.50;1670554;85;21182;-83
2020/12/06 00:19:17;;;;;;;13.15;9.40;;;;;;;4.94;76.18;97276.20;1651653;87;21196;-75
2020/12/06 00:21:48;;;;;;;12.30;8.00;;;;;;;4.96;76.49;97293.50;1651996;87;21640;-79
2020/12/06 00:24:16;;;;;;;18.27;8.43;;;;;;;4.96;76.45;97282.19;1652471;87;21160;-78
2020/12/06 00:26:44;;;;;;;11.70;8.13;;;;;;;4.97;76.53;97283.41;1652399;85;21175;-88
2020/12/06 00:29:16;;;;;;;15.03;8.45;;;;;;;4.99;76.42;97278.95;1681327;85;21278;-82
2020/12/06 00:31:51;;;;;;;14.18;8.55;;;;;;;5.06;76.72;97276.84;1681451;85;21366;-88
2020/12/06 00:34:19;;;;;;;11.50;8.18;;;;;;;5.06;76.67;97273.41;1678071;85;21260;-86
2020/12/06 00:36:50;;;;;;;13.20;9.20;;;;;;;5.06;76.68;97277.32;1656342;84;21171;-87
2020/12/06 00:39:19;;;;;;;14.98;9.43;;;;;;;5.06;76.45;97282.07;1649327;87;21177;-81
2020/12/06 00:41:48;;;;;;;15.65;8.93;;;;;;;5.02;76.30;97282.33;1656521;86;21294;-85
2020/12/06 00:44:16;;;;;;;12.82;8.85;;;;;;;5.00;76.10;97279.33;1649644;86;21163;-88
2020/12/06 00:46:44;;;;;;;16.50;9.75;;;;;;;4.96;76.14;97283.05;1666262;86;21302;-82
2020/12/06 00:49:12;;;;;;;12.55;8.30;;;;;;;4.93;76.15;97288.44;1670992;86;21171;-81
2020/12/06 00:51:40;;;;;;;14.63;9.45;;;;;;;4.90;76.09;97291.20;1656105;86;21167;-77
2020/12/06 00:54:08;;;;;;;17.35;9.48;;;;;;;4.86;76.08;97287.09;1674229;85;21610;-84
2020/12/06 00:56:35;;;;;;;16.25;9.83;;;;;;;4.83;76.09;97287.24;1674900;86;21163;-86
2020/12/06 00:59:02;;;;;;;19.57;10.82;;;;;;;4.78;76.18;97286.66;1656645;86;21173;-85
2020/12/06 01:01:30;;;;;;;18.80;9.40;;;;;;;4.67;75.98;97282.85;1660996;85;21176;-88
2020/12/06 01:04:01;;;;;;;15.72;9.85;;;;;;;4.59;75.89;97283.73;1675231;84;21595;-79
2020/12/06 01:06:49;;;;;;;14.40;8.60;;;;;;;4.57;76.35;97282.95;1823049;79;23561;-87
2020/12/06 01:09:17;;;;;;;17.65;8.60;;;;;;;4.45;76.01;97277.93;1822864;78;21124;-88
2020/12/06 01:11:55;;;;;;;13.13;8.40;;;;;;;4.37;76.75;97283.98;1804913;78;21226;-85
2020/12/06 01:14:46;;;;;;;13.72;8.63;;;;;;;4.30;77.69;97275.66;1789581;78;21606;-84
2020/12/06 01:17:18;;;;;;;15.30;8.70;;;;;;;4.26;76.61;97264.98;1772941;78;21553;-89
2020/12/06 01:19:54;;;;;;;14.15;8.15;;;;;;;4.25;76.71;97269.81;1767435;81;21298;-79
2020/12/06 01:22:23;;;;;;;10.95;7.17;;;;;;;4.24;76.66;97262.91;1767684;81;21236;-79
2020/12/06 01:24:50;;;;;;;11.70;7.47;;;;;;;4.28;77.49;97267.50;1764357;81;21405;-87
2020/12/06 01:27:18;;;;;;;10.95;7.35;;;;;;;4.27;78.28;97259.32;1774307;78;21136;-88
2020/12/06 01:29:45;;;;;;;12.78;7.50;;;;;;;4.29;77.66;97257.00;1806177;78;21152;-84
2020/12/06 01:32:19;;;;;;;13.80;6.83;;;;;;;4.34;77.78;97264.12;1813657;78;21131;-86
2020/12/06 01:34:46;;;;;;;13.15;7.17;;;;;;;4.37;77.79;97263.97;1798325;78;21148;-86
2020/12/06 01:37:13;;;;;;;11.80;6.85;;;;;;;4.44;77.71;97270.16;1825962;78;21141;-84
2020/12/06 01:39:41;;;;;;;13.53;7.58;;;;;;;4.47;77.76;97270.01;1778813;78;21147;-83
2020/12/06 01:42:08;;;;;;;9.55;6.67;;;;;;;4.53;77.97;97270.53;1792613;78;21132;-82
2020/12/06 01:44:36;;;;;;;9.33;6.87;;;;;;;4.56;77.56;97262.99;1826368;78;21132;-82
2020/12/06 01:47:10;;;;;;;10.45;6.15;;;;;;;4.59;77.79;97266.76;1825403;78;21131;-89
2020/12/06 01:49:43;;;;;;;9.35;6.37;;;;;;;4.63;77.69;97257.81;1726607;82;21167;-80
2020/12/06 01:52:12;;;;;;;9.30;5.67;;;;;;;4.74;77.74;97261.14;1730710;83;21132;-85
2020/12/06 01:54:40;;;;;;;10.10;6.47;;;;;;;4.88;77.91;97249.95;1756972;81;21124;-84
2020/12/06 01:57:07;;;;;;;9.13;6.85;;;;;;;4.98;78.05;97262.89;1743083;82;21292;-87
2020/12/06 01:59:34;;;;;;;9.45;6.17;;;;;;;5.06;77.36;97258.55;1725192;83;21783;-87
2020/12/06 02:02:16;;;;;;;17.50;5.33;;;;;;;5.12;77.08;97263.43;1749708;82;21262;-82
2020/12/06 02:04:56;;;;;;;9.85;6.55;;;;;;;5.15;77.08;97251.98;1758887;81;21282;-82
2020/12/06 02:07:27;;;;;;;8.48;4.33;;;;;;;5.18;76.84;97252.27;1722244;83;21137;-83
2020/12/06 02:10:00;;;;;;;7.10;4.12;;;;;;;5.23;76.92;97260.69;1713949;83;21278;-84
2020/12/06 02:12:28;;;;;;;10.43;6.92;;;;;;;5.25;76.78;97261.45;1731733;82;21247;-79
2020/12/06 02:15:01;;;;;;;12.70;7.65;;;;;;;5.24;76.73;97255.39;1691931;83;21259;-81
2020/12/06 02:17:43;;;;;;;9.30;6.40;;;;;;;5.25;76.52;97255.74;1693852;85;21238;-86
2020/12/06 02:20:12;;;;;;;8.73;5.72;;;;;;;5.27;76.54;97256.50;1693550;85;21157;-80
2020/12/06 02:22:42;;;;;;;8.13;5.90;;;;;;;5.29;76.46;97255.13;1725414;82;21308;-78
2020/12/06 02:25:10;;;;;;;7.12;4.40;;;;;;;5.28;76.44;97247.74;1742427;82;21168;-85
2020/12/06 02:27:38;;;;;;;8.35;5.72;;;;;;;5.30;76.41;97240.66;1740992;82;21270;-89
2020/12/06 02:30:06;;;;;;;9.93;6.12;;;;;;;5.29;76.26;97240.76;1735848;82;21329;-85
2020/12/06 02:32:35;;;;;;;11.25;6.22;;;;;;;5.25;76.36;97234.00;1724874;83;21700;-83
2020/12/06 02:35:04;;;;;;;8.05;5.37;;;;;;;5.24;76.22;97243.63;1754941;82;21314;-81
2020/12/06 02:37:39;;;;;;;6.78;3.92;;;;;;;5.24;76.16;97248.00;1688450;85;21297;-84
2020/12/06 02:40:08;;;;;;;6.83;4.47;;;;;;;5.22;76.24;97246.79;1710202;83;21152;-82
2020/12/06 02:42:41;;;;;;;7.83;5.08;;;;;;;5.20;76.21;97244.72;1757995;82;21167;-84
2020/12/06 02:45:09;;;;;;;6.50;4.20;;;;;;;5.18;76.19;97249.18;1731159;83;21256;-90
2020/12/06 02:47:37;;;;;;;11.03;5.45;;;;;;;5.17;76.26;97246.19;1757664;81;21120;-80
2020/12/06 02:50:09;;;;;;;9.05;5.35;;;;;;;5.15;76.19;97246.77;1725693;83;21582;-83
2020/12/06 02:52:43;;;;;;;9.10;5.83;;;;;;;5.16;76.20;97243.19;1729732;83;21274;-81
2020/12/06 02:55:10;;;;;;;9.08;5.75;;;;;;;5.14;76.11;97242.46;1757525;82;21167;-83
2020/12/06 02:57:39;;;;;;;8.28;4.90;;;;;;;5.12;76.20;97246.92;1723788;83;21159;-84
2020/12/06 03:00:14;;;;;;;11.08;7.33;;;;;;;5.11;76.35;97243.92;1729041;83;21306;-84
2020/12/06 03:02:44;;;;;;;10.48;5.37;;;;;;;5.10;76.27;97250.08;1755108;81;21626;-79
2020/12/06 03:05:12;;;;;;;5.87;4.12;;;;;;;5.07;76.11;97245.02;1726899;83;21635;-88
2020/12/06 03:07:41;;;;;;;11.95;6.83;;;;;;;4.99;76.19;97241.54;1732788;83;21253;-77
2020/12/06 03:10:09;;;;;;;9.10;5.33;;;;;;;4.91;76.44;97251.09;1714576;83;21169;-90
2020/12/06 03:12:43;;;;;;;7.90;4.87;;;;;;;4.86;76.89;97246.60;1733236;83;21250;-77
2020/12/06 03:15:11;;;;;;;10.82;7.00;;;;;;;4.81;77.47;97244.69;1700873;84;21184;-83
2020/12/06 03:17:49;;;;;;;8.30;6.05;;;;;;;4.76;76.95;97246.72;1731343;83;21119;-83
2020/12/06 03:20:16;;;;;;;8.78;6.00;;;;;;;4.79;76.90;97249.14;1714904;84;21129;-83
2020/12/06 03:22:44;;;;;;;6.95;4.45;;;;;;;4.80;76.79;97254.75;1733287;83;21523;-81
2020/12/06 03:25:14;;;;;;;8.48;5.67;;;;;;;4.81;77.13;97248.16;1714777;84;21169;-81
2020/12/06 03:27:42;;;;;;;7.85;6.10;;;;;;;4.79;77.13;97243.48;1734708;83;21138;-89
2020/12/06 03:30:09;;;;;;;7.95;6.17;;;;;;;4.80;77.16;97242.55;1702942;83;21158;-82
2020/12/06 03:32:43;;;;;;;11.03;6.40;;;;;;;4.81;77.31;97234.23;1705794;83;21285;-81
2020/12/06 03:35:11;;;;;;;10.63;6.17;;;;;;;4.80;77.12;97237.33;1701579;83;21175;-77
2020/12/06 03:37:38;;;;;;;7.55;4.85;;;;;;;4.77;77.08;97238.79;1702879;83;21670;-87
2020/12/06 03:40:06;;;;;;;8.38;6.30;;;;;;;4.76;77.33;97239.72;1690305;84;21177;-82
2020/12/06 03:42:34;;;;;;;8.58;5.65;;;;;;;4.75;77.12;97241.94;1696246;84;21290;-77
2020/12/06 03:45:04;;;;;;;13.00;6.78;;;;;;;4.74;77.11;97244.65;1675200;86;21317;-85
2020/12/06 03:47:41;;;;;;;6.75;4.67;;;;;;;4.74;77.30;97244.65;1677138;85;21168;-82
2020/12/06 03:50:11;;;;;;;10.90;7.35;;;;;;;4.71;77.58;97236.52;1677341;86;21163;-79
2020/12/06 03:52:40;;;;;;;9.85;5.67;;;;;;;4.65;77.26;97239.00;1693828;84;21311;-77
2020/12/06 03:55:08;;;;;;;11.15;5.78;;;;;;;4.65;77.27;97236.84;1705510;84;21185;-80
2020/12/06 03:57:41;;;;;;;8.18;5.92;;;;;;;4.63;77.56;97235.63;1705567;84;21161;-76
2020/12/06 04:00:09;;;;;;;10.68;7.53;;;;;;;4.63;77.44;97236.93;1703168;84;21206;-77
2020/12/06 04:02:38;;;;;;;11.90;7.17;;;;;;;4.63;77.52;97244.77;1697020;83;21164;-77
2020/12/06 04:05:05;;;;;;;8.85;6.55;;;;;;;4.63;77.38;97238.71;1703738;83;21203;-77
2020/12/06 04:07:33;;;;;;;11.97;8.10;;;;;;;4.66;77.36;97230.69;1723213;81;21279;-76
2020/12/06 04:10:00;;;;;;;11.43;8.48;;;;;;;4.61;77.45;97223.58;1702505;84;21157;-80
2020/12/06 04:12:27;;;;;;;11.85;6.97;;;;;;;4.61;77.19;97224.41;1688210;84;21554;-79
2020/12/06 04:14:54;;;;;;;11.10;7.28;;;;;;;4.59;76.99;97234.13;1679226;84;21220;-76
2020/12/06 04:17:22;;;;;;;11.93;8.28;;;;;;;4.58;77.09;97231.12;1685036;84;21571;-82
2020/12/06 04:19:51;;;;;;;10.65;7.22;;;;;;;4.58;77.04;97231.57;1715856;84;21168;-78
2020/12/06 04:22:18;;;;;;;9.68;6.17;;;;;;;4.56;77.47;97226.89;1715421;84;21173;-76
2020/12/06 04:24:47;;;;;;;11.43;8.48;;;;;;;4.56;77.21;97230.36;1715457;84;21149;-77
2020/12/06 04:27:17;;;;;;;11.73;7.72;;;;;;;4.53;77.20;97234.43;1698690;84;21200;-79
2020/12/06 04:29:48;;;;;;;11.20;7.45;;;;;;;4.50;77.28;97233.31;1696856;84;22194;-79
2020/12/06 04:32:15;;;;;;;8.60;6.78;;;;;;;4.54;77.31;97234.81;1696720;84;21185;-78
2020/12/06 04:34:45;;;;;;;13.70;7.80;;;;;;;4.57;77.39;97228.58;1710449;84;21146;-78
2020/12/06 04:37:14;;;;;;;12.47;7.83;;;;;;;4.62;77.33;97224.80;1712267;84;21180;-79
2020/12/06 04:39:42;;;;;;;11.85;8.10;;;;;;;4.67;77.25;97226.71;1702695;84;21124;-79
2020/12/06 04:42:12;;;;;;;9.65;7.42;;;;;;;4.72;77.13;97246.49;1713486;84;21572;-78
2020/12/06 04:44:40;;;;;;;9.85;5.85;;;;;;;4.64;76.96;97235.18;1710767;84;21161;-78
2020/12/06 04:47:13;;;;;;;11.18;7.45;;;;;;;4.61;77.20;97232.24;1709726;84;21305;-80
2020/12/06 04:49:51;;;;;;;9.80;7.03;;;;;;;4.56;77.10;97229.50;1683723;85;21301;-82
2020/12/06 04:52:23;;;;;;;10.23;7.30;;;;;;;4.52;77.09;97229.69;1718955;83;21097;-75
2020/12/06 04:55:02;;;;;;;13.15;8.50;;;;;;;4.51;77.02;97228.44;1685864;84;21159;-80
2020/12/06 04:57:38;;;;;;;11.43;7.67;;;;;;;4.50;77.27;97225.48;1695311;84;21312;-80
2020/12/06 05:00:09;;;;;;;11.50;7.87;;;;;;;4.55;78.54;97224.75;1661226;85;21152;-86
2020/12/06 05:02:49;;;;;;;10.85;7.75;;;;;;;4.60;77.35;97221.42;1684091;84;21140;-82
2020/12/06 05:05:20;;;;;;;9.53;6.55;;;;;;;4.61;77.19;97231.42;1682667;84;21194;-86
2020/12/06 05:07:51;;;;;;;11.60;6.50;;;;;;;4.60;77.34;97234.95;1689511;84;21163;-79
2020/12/06 05:10:22;;;;;;;10.25;7.08;;;;;;;4.64;77.44;97230.78;1684177;85;21133;-81
2020/12/06 05:12:51;;;;;;;14.25;7.00;;;;;;;4.66;77.24;97232.00;1695776;85;21152;-87
2020/12/06 05:15:19;;;;;;;9.95;6.85;;;;;;;4.64;77.28;97233.39;1697922;85;21723;-80
2020/12/06 05:17:47;;;;;;;10.08;6.50;;;;;;;4.69;77.34;97232.67;1687677;85;21762;-86
2020/12/06 05:20:14;;;;;;;9.20;6.03;;;;;;;4.74;77.24;97238.12;1667852;86;21184;-79
2020/12/06 05:22:48;;;;;;;15.20;7.05;;;;;;;4.73;77.32;97242.96;1690064;85;21216;-78
2020/12/06 05:25:17;;;;;;;9.48;7.78;;;;;;;4.76;77.47;97248.03;1695754;85;21216;-78
2020/12/06 05:27:45;;;;;;;8.45;5.37;;;;;;;4.77;77.27;97242.71;1691545;85;21168;-77
2020/12/06 05:30:15;;;;;;;11.28;7.58;;;;;;;4.74;77.29;97251.17;1693866;84;21171;-82
2020/12/06 05:32:42;;;;;;;9.20;6.12;;;;;;;4.71;77.46;97259.17;1680052;83;22338;-83
2020/12/06 05:35:12;;;;;;;9.90;7.03;;;;;;;4.61;77.36;97244.00;1680338;83;21311;-86
2020/12/06 05:37:43;;;;;;;11.73;7.90;;;;;;;4.70;77.41;97264.87;1674681;85;21339;-86
2020/12/06 05:40:19;;;;;;;11.48;6.55;;;;;;;4.69;77.36;97262.70;1697688;84;21740;-82
2020/12/06 05:42:47;;;;;;;9.68;6.85;;;;;;;4.71;77.33;97265.25;1695811;84;21586;-80
2020/12/06 05:45:21;;;;;;;9.90;6.72;;;;;;;4.73;77.32;97266.46;1694835;84;21219;-79
2020/12/06 05:47:51;;;;;;;11.08;6.67;;;;;;;4.75;77.23;97268.53;1695331;84;21168;-82
2020/12/06 05:50:28;;;;;;;11.53;6.17;;;;;;;4.75;77.42;97273.76;1649113;85;21176;-81
2020/12/06 05:52:57;;;;;;;8.93;6.40;;;;;;;4.75;77.49;97278.50;1695861;85;21176;-78
2020/12/06 05:55:25;;;;;;;11.08;6.20;;;;;;;4.79;77.34;97275.27;1693699;85;21168;-77
2020/12/06 05:57:55;;;;;;;7.37;4.58;;;;;;;4.84;77.28;97275.88;1695745;84;21704;-77
2020/12/06 06:00:23;;;;;;;8.68;5.92;;;;;;;4.88;77.16;97276.06;1670845;85;21432;-82
2020/12/06 06:02:56;;;;;;;11.05;7.55;;;;;;;4.90;77.25;97268.17;1689214;84;21164;-78
2020/12/06 06:05:28;;;;;;;10.28;6.80;;;;;;;4.92;77.01;97258.01;1669739;83;21213;-85
2020/12/06 06:08:01;;;;;;;7.83;6.33;;;;;;;4.93;77.06;97267.98;1676234;85;21249;-82
2020/12/06 06:10:34;;;;;;;11.53;6.97;;;;;;;4.95;76.76;97266.13;1728711;82;21165;-79
2020/12/06 06:13:05;;;;;;;12.15;8.45;;;;;;;4.94;76.71;97262.70;1675933;86;21167;-85
2020/12/06 06:15:34;;;;;;;13.75;8.53;;;;;;;4.87;76.46;97259.19;1680352;83;21175;-82
2020/12/06 06:18:08;;;;;;;11.35;7.20;;;;;;;4.83;76.59;97259.81;1722160;82;21156;-84
2020/12/06 06:20:36;;;;;;;8.30;5.67;;;;;;;4.83;76.75;97261.12;1725882;82;21543;-77
2020/12/06 06:23:07;;;;;;;12.03;7.35;;;;;;;4.82;76.87;97262.05;1740772;82;21176;-83
2020/12/06 06:25:35;;;;;;;9.03;5.78;;;;;;;4.86;76.56;97259.66;1741037;82;21892;-79
2020/12/06 06:28:03;;;;;;;9.95;6.28;;;;;;;4.91;76.68;97263.33;1749586;82;21168;-84
2020/12/06 06:30:30;;;;;;;8.53;5.47;;;;;;;5.00;76.67;97266.27;1724037;83;21188;-82
2020/12/06 06:32:57;;;;;;;9.80;6.30;;;;;;;5.12;76.55;97265.22;1739668;82;21700;-79
2020/12/06 06:35:26;;;;;;;9.48;5.50;;;;;;;5.15;76.46;97267.67;1713823;82;21313;-83
2020/12/06 06:37:54;;;;;;;6.85;4.37;;;;;;;5.18;76.33;97264.86;1694906;82;21250;-77
2020/12/06 06:40:28;;;;;;;10.70;6.75;;;;;;;5.19;75.50;97260.02;1696867;82;21171;-81
2020/12/06 06:42:55;;;;;;;6.95;5.47;;;;;;;5.18;75.58;97262.73;1712201;84;21181;-79
2020/12/06 06:45:24;;;;;;;10.85;7.35;;;;;;;5.18;75.34;97258.81;1715176;84;21169;-79
2020/12/06 06:47:54;;;;;;;9.00;4.87;;;;;;;5.16;75.46;97257.12;1663565;82;21148;-82
2020/12/06 06:50:24;;;;;;;9.45;6.83;;;;;;;5.21;75.40;97258.17;1710590;82;21144;-85
2020/12/06 06:52:56;;;;;;;8.13;5.25;;;;;;;5.21;75.34;97252.94;1712116;82;21170;-85
2020/12/06 06:55:24;;;;;;;10.82;7.20;;;;;;;5.26;75.18;97257.44;1683680;85;21187;-85
2020/12/06 06:57:52;;;;;;;13.62;8.20;;;;;;;5.26;75.39;97259.22;1731917;82;21151;-86
2020/12/06 07:00:28;;;;;;;10.70;6.85;;;;;;;5.30;75.46;97260.27;1754007;82;21113;-85
2020/12/06 07:02:56;;;;;;;;;;;;;;;5.36;75.37;97252.55;1721099;83;21156;-88
2020/12/06 07:05:23;;;;;;;12.10;8.48;;;;;;;5.38;75.20;97251.97;1724738;83;20251;-83
2020/12/06 07:07:52;;;;;;;13.65;9.68;;;;;;;5.40;75.19;97259.74;1722382;82;21176;-84
2020/12/06 07:10:27;;;;;;;13.85;9.13;;;;;;;5.43;75.23;97255.63;1738688;82;21187;-85
2020/12/06 07:12:58;;;;;;;10.60;7.50;;;;;;;5.43;75.09;97252.56;1598724;89;21276;-78
2020/12/06 07:15:28;;;;;;;13.43;7.92;;;;;;;5.46;74.97;97248.92;1621869;87;21199;-78
2020/12/06 07:17:57;;;;;;;11.83;8.55;;;;;;;5.50;74.97;97249.14;1643735;86;21205;-82
2020/12/06 07:20:28;;;;;;;10.58;7.47;;;;;;;5.62;75.14;97258.05;1633580;86;21207;-79
2020/12/06 07:22:56;;;;;;;22.73;14.93;;;;;;;5.77;75.06;97240.14;1654544;86;21256;-83
2020/12/06 07:25:25;;;;;;;12.73;8.65;;;;;;;5.92;75.13;97241.02;1665703;86;21232;-88
2020/12/06 07:27:52;;;;;;;8.05;4.95;;;;;;;6.02;74.99;97241.37;1665317;86;21635;-83
2020/12/06 07:30:20;;;;;;;9.65;6.10;;;;;;;6.15;73.05;97232.31;1659147;86;21187;-81
2020/12/06 07:32:48;;;;;;;12.55;8.28;;;;;;;6.18;73.26;97247.81;1629070;86;21676;-82
2020/12/06 07:35:18;;;;;;;8.45;6.83;;;;;;;6.29;73.76;97248.49;1665650;86;21280;-87
2020/12/06 07:37:45;;;;;;;14.03;9.58;;;;;;;6.46;73.46;97245.31;1681190;84;21678;-84
2020/12/06 07:40:14;;;;;;;13.32;8.45;;;;;;;6.62;73.68;97242.59;1666429;85;21201;-81
2020/12/06 07:42:42;;;;;;;14.90;8.80;;;;;;;6.80;73.54;97244.06;1651044;87;21222;-82
2020/12/06 07:45:09;;;;;;;11.65;9.58;;;;;;;6.93;73.41;97242.82;1651155;87;21671;-85
2020/12/06 07:47:36;;;;;;;10.58;8.33;;;;;;;7.12;73.26;97248.20;1687919;84;21163;-81
2020/12/06 07:50:06;;;;;;;12.15;8.48;;;;;;;7.27;73.11;97245.08;1730125;83;21349;-85
2020/12/06 07:52:38;;;;;;;12.75;8.13;;;;;;;7.33;72.33;97246.80;1741471;81;21589;-82
2020/12/06 07:55:09;;;;;;;11.45;8.35;;;;;;;7.46;72.59;97236.84;1760557;81;21306;-83
2020/12/06 07:57:51;;;;;;;6.28;5.03;;;;;;;7.79;71.92;97239.02;1727021;83;21645;-86
2020/12/06 08:00:22;;;;;;;8.73;5.78;;;;;;;7.79;71.92;97239.02;1690502;84;21173;-80
2020/12/06 08:02:57;;;;;;;8.70;6.55;;;;;;;7.90;71.31;97237.47;1699859;83;21132;-81
2020/12/06 08:05:32;;;;;;;13.25;7.72;;;;;;;8.02;71.33;97248.45;1701566;83;21168;-82
2020/12/06 08:08:13;;;;;;;8.53;6.30;;;;;;;8.10;71.10;97238.73;1717425;83;21167;-78
2020/12/06 08:10:42;;;;;;;11.22;6.87;;;;;;;8.22;70.58;97244.47;1677500;84;21620;-81
2020/12/06 08:13:12;;;;;;;10.53;7.30;;;;;;;8.33;70.76;97248.15;1733272;82;21803;-80
2020/12/06 08:15:41;;;;;;;6.90;4.40;;;;;;;8.44;70.74;97246.45;1708196;84;21195;-85
2020/12/06 08:18:14;;;;;;;11.43;5.30;;;;;;;8.48;68.81;97237.91;1737604;82;21644;-91
2020/12/06 08:20:54;;;;;;;6.37;4.50;;;;;;;8.36;67.07;97240.89;1735523;82;21191;-83
2020/12/06 08:26:15;;;;;;;9.73;4.50;;;;;;;8.35;68.48;97233.95;1819974;79;24643;-85
2020/12/06 08:28:49;;;;;;;5.97;3.62;;;;;;;8.27;65.93;97232.34;1762772;80;21166;-86
2020/12/06 08:31:22;;;;;;;5.70;4.25;;;;;;;8.23;67.48;97221.20;1769858;80;21152;-88
2020/12/06 08:33:49;;;;;;;8.10;5.62;;;;;;;8.32;67.89;97235.47;1762401;80;21176;-83
2020/12/06 08:36:24;;;;;;;12.33;4.65;;;;;;;8.35;67.89;97228.70;1762010;81;21186;-81
2020/12/06 08:38:51;;;;;;;6.80;4.55;;;;;;;8.37;66.67;97233.39;1761647;81;21617;-79
2020/12/06 08:41:25;;;;;;;8.80;4.50;;;;;;;8.41;66.49;97240.09;1761568;81;21124;-79
2020/12/06 08:44:04;;;;;;;6.87;4.85;;;;;;;8.33;66.46;97234.53;1761967;81;21249;-85
2020/12/06 08:46:33;;;;;;;6.03;4.83;;;;;;;8.29;66.33;97227.34;1762451;81;21140;-78
2020/12/06 08:49:04;;;;;;;5.83;3.98;;;;;;;8.38;66.53;97222.39;1779939;80;21610;-82
2020/12/06 08:51:36;;;;;;;6.78;4.50;;;;;;;8.44;66.77;97220.67;1782701;80;21561;-90
2020/12/06 08:54:07;;;;;;;5.37;3.75;;;;;;;8.46;66.59;97213.98;1783826;80;21688;-86
2020/12/06 08:56:37;;;;;;;6.35;4.42;;;;;;;8.54;67.24;97211.70;1793066;79;21566;-86
2020/12/06 08:59:13;;;;;;;6.85;4.17;;;;;;;8.62;67.13;97215.11;1730906;82;21181;-91
2020/12/06 09:01:48;;;;;;;;;;;;;;;8.64;66.32;97206.16;1600289;88;21659;-85
2020/12/06 09:04:17;;;;;;;5.75;4.62;;;;;;;8.71;67.44;97203.45;1612304;88;20205;-89
2020/12/06 09:06:46;;;;;;;7.35;5.22;;;;;;;8.88;69.08;97204.03;1610318;88;21220;-90
2020/12/06 09:09:16;;;;;;;7.97;4.83;;;;;;;8.98;67.07;97205.05;1608361;88;21328;-88
2020/12/06 09:11:57;;;;;;;4.67;3.10;;;;;;;9.02;67.23;97198.64;1610878;88;21212;-91
2020/12/06 09:14:26;;;;;;;6.72;4.70;;;;;;;9.06;65.18;97207.97;1609913;88;21215;-84
2020/12/06 09:16:54;;;;;;;9.28;4.78;;;;;;;8.93;64.72;97195.36;1613713;88;21252;-88
2020/12/06 09:19:22;;;;;;;8.48;4.67;;;;;;;8.91;65.67;97194.63;1638551;83;21196;-83
2020/12/06 09:21:51;;;;;;;5.85;4.50;;;;;;;8.95;65.53;97184.27;1706916;83;21643;-83
2020/12/06 09:24:18;;;;;;;6.35;3.92;;;;;;;9.02;66.27;97180.69;1696624;84;21168;-83
2020/12/06 09:26:47;;;;;;;4.55;3.15;;;;;;;9.00;65.29;97184.75;1675045;84;21184;-83
2020/12/06 09:29:15;;;;;;;12.03;5.33;;;;;;;8.97;64.52;97184.14;1745602;81;21149;-82
2020/12/06 09:31:42;;;;;;;5.20;3.98;;;;;;;8.96;64.27;97180.66;1747220;81;21156;-78
2020/12/06 09:34:10;;;;;;;5.58;3.70;;;;;;;9.02;65.42;97177.60;1749978;81;21183;-83
2020/12/06 09:36:43;;;;;;;5.78;4.35;;;;;;;8.97;63.30;97178.88;1749595;81;21609;-82
2020/12/06 09:39:11;;;;;;;5.35;3.40;;;;;;;8.98;63.08;97164.80;1748129;81;21161;-77
2020/12/06 09:41:38;;;;;;;8.28;4.10;;;;;;;9.03;64.38;97174.03;1745825;81;21531;-87
2020/12/06 09:44:07;;;;;;;6.78;5.25;;;;;;;8.98;64.68;97173.51;1754217;81;21641;-80
2020/12/06 09:46:35;;;;;;;5.25;3.52;;;;;;;8.85;63.96;97165.67;1747386;81;21558;-78
2020/12/06 09:49:03;;;;;;;4.65;2.80;;;;;;;8.91;64.25;97166.53;1746274;81;21162;-81
2020/12/06 09:51:32;;;;;;;7.10;4.85;;;;;;;8.95;64.51;97159.29;1748432;81;21630;-87
2020/12/06 09:54:02;;;;;;;8.85;4.97;;;;;;;8.96;64.28;97168.00;1746765;81;21132;-87
2020/12/06 09:56:30;;;;;;;6.80;4.90;;;;;;;8.93;64.20;97166.44;1748433;81;21172;-82
2020/12/06 09:58:59;;;;;;;5.30;3.98;;;;;;;8.95;63.92;97150.55;1747580;81;21250;-79
2020/12/06 10:01:27;;;;;;;5.78;4.35;;;;;;;8.94;64.30;97146.23;1747190;81;21570;-82
2020/12/06 10:03:55;;;;;;;3.25;2.58;;;;;;;8.97;64.53;97146.84;1749291;81;21210;-84
2020/12/06 10:06:26;;;;;;;5.28;3.22;;;;;;;9.02;64.22;97143.88;1751346;81;21375;-84
2020/12/06 10:09:01;;;;;;;6.40;3.98;;;;;;;9.01;64.48;97136.48;1750006;81;21756;-89
2020/12/06 10:11:29;;;;;;;6.28;3.95;;;;;;;9.03;64.24;97135.05;1747006;81;21180;-81
2020/12/06 10:13:57;;;;;;;6.03;4.58;;;;;;;9.08;64.19;97133.39;1676426;85;21179;-76
2020/12/06 10:16:25;;;;;;;6.75;4.35;;;;;;;9.18;64.05;97127.82;1746730;81;21121;-87
2020/12/06 10:18:54;;;;;;;8.25;4.55;;;;;;;9.30;65.02;97120.34;1682869;85;21539;-80
2020/12/06 10:21:21;;;;;;;3.80;2.95;;;;;;;9.38;64.12;97110.54;1745623;81;21140;-86
2020/12/06 10:23:48;;;;;;;5.80;3.50;;;;;;;9.40;63.42;97120.97;1701321;83;21134;-79
2020/12/06 10:26:16;;;;;;;6.62;4.17;;;;;;;9.34;63.72;97119.14;1696337;84;21176;-87
2020/12/06 10:28:44;;;;;;;5.40;3.75;;;;;;;9.36;63.02;97119.87;1742952;82;21298;-86
2020/12/06 10:31:11;;;;;;;4.42;3.65;;;;;;;9.40;62.65;97121.80;1743221;81;21184;-78
2020/12/06 10:33:38;;;;;;;6.67;4.45;;;;;;;9.33;62.44;97120.58;1745158;81;21182;-81
2020/12/06 10:36:06;;;;;;;6.47;4.55;;;;;;;9.33;63.03;97116.14;1742705;82;21156;-84
2020/12/06 10:38:33;;;;;;;9.93;4.65;;;;;;;9.37;63.08;97105.77;1751872;81;21168;-83
2020/12/06 10:41:01;;;;;;;9.78;4.50;;;;;;;9.34;63.18;97109.94;1694772;84;21610;-85
2020/12/06 10:43:29;;;;;;;7.53;3.92;;;;;;;9.40;63.73;97115.22;1754901;81;21138;-78
2020/12/06 10:45:57;;;;;;;5.15;3.90;;;;;;;9.46;62.99;97119.18;1742033;81;21175;-81
2020/12/06 10:48:25;;;;;;;6.05;4.10;;;;;;;9.46;62.50;97123.98;1750272;81;21148;-81
2020/12/06 10:50:53;;;;;;;5.08;3.58;;;;;;;9.51;63.08;97113.11;1746427;81;21125;-85
2020/12/06 10:53:23;;;;;;;8.25;4.53;;;;;;;9.53;62.82;97096.24;1750453;81;21101;-84
2020/12/06 10:55:52;;;;;;;5.10;3.87;;;;;;;9.58;61.80;97094.58;1752977;81;21168;-79
2020/12/06 10:58:19;;;;;;;5.58;3.90;;;;;;;9.63;62.59;97095.05;1740365;82;21180;-86
2020/12/06 11:00:47;;;;;;;6.50;4.15;;;;;;;9.67;62.92;97088.61;1739978;82;21161;-80
2020/12/06 11:03:14;;;;;;;10.23;4.50;;;;;;;9.68;62.34;97085.02;1741807;82;21161;-83
2020/12/06 11:05:42;;;;;;;5.67;3.83;;;;;;;9.73;61.44;97091.71;1746960;81;21156;-83
2020/12/06 11:08:11;;;;;;;8.20;5.05;;;;;;;9.76;62.33;97087.54;1726796;82;21633;-83
2020/12/06 11:10:40;;;;;;;6.60;5.10;;;;;;;9.80;61.98;97088.95;1746023;81;21558;-85
2020/12/06 11:13:07;;;;;;;6.10;4.58;;;;;;;9.82;61.66;97076.52;1750395;81;21172;-85
2020/12/06 11:15:34;;;;;;;7.58;5.25;;;;;;;9.87;62.38;97070.44;1749044;81;21164;-82
2020/12/06 11:18:04;;;;;;;7.65;4.58;;;;;;;9.91;61.89;97078.94;1745118;81;21145;-85
2020/12/06 11:20:31;;;;;;;7.35;4.62;;;;;;;9.93;62.15;97065.17;1748948;81;21140;-78
2020/12/06 11:22:58;;;;;;;8.40;5.22;;;;;;;9.97;61.80;97065.28;1745063;81;21605;-85
2020/12/06 11:25:26;;;;;;;7.42;5.47;;;;;;;9.98;61.81;97066.95;1738851;81;21208;-84
2020/12/06 11:27:53;;;;;;;8.83;5.62;;;;;;;9.99;62.09;97066.00;1742375;82;21169;-83
2020/12/06 11:30:21;;;;;;;7.75;4.72;;;;;;;9.99;61.98;97062.88;1742980;82;21299;-83
2020/12/06 11:32:49;;;;;;;7.45;5.33;;;;;;;10.01;61.36;97062.78;1743457;82;21889;-81
2020/12/06 11:35:17;;;;;;;7.35;4.67;;;;;;;9.98;61.08;97065.15;1743736;81;22210;-82
2020/12/06 11:37:44;;;;;;;7.72;4.92;;;;;;;10.05;61.95;97058.92;1743627;81;21197;-81
2020/12/06 11:40:12;;;;;;;10.55;5.62;;;;;;;10.07;62.04;97054.88;1743392;82;21168;-82
2020/12/06 11:42:39;;;;;;;6.25;3.83;;;;;;;10.11;61.51;97044.44;1743787;82;21335;-81
2020/12/06 11:45:07;;;;;;;6.58;5.20;;;;;;;10.15;61.46;97044.08;1743525;82;21342;-82
2020/12/06 11:47:34;;;;;;;10.32;6.30;;;;;;;10.10;60.87;97046.25;1743783;82;21310;-83
2020/12/06 11:50:03;;;;;;;6.05;4.75;;;;;;;10.12;60.76;97054.02;1743750;81;21504;-84
2020/12/06 11:52:31;;;;;;;6.83;4.87;;;;;;;10.14;61.51;97042.40;1743685;82;21181;-84
2020/12/06 11:54:59;;;;;;;6.80;5.37;;;;;;;10.08;60.68;97044.67;1743666;82;21280;-82